sensor_id;sensor_type;location;lat;lon;timestamp;pressure;altitude;pressure_sealevel;temperature;humidity
72548;BME280;60570;50.848;6.776;2023-06-22T00:00:35;100641.78;;;25.89;46.86
72548;BME280;60570;50.848;6.776;2023-06-22T00:01:35;100644.97;;;25.91;47.15
72548;BME280;60570;50.848;6.776;2023-06-22T00:02:37;100649.88;;;25.90;47.16
72548;BME280;60570;50.848;6.776;2023-06-22T00:03:38;100654.34;;;25.91;47.23
72548;BME280;60570;50.848;6.776;2023-06-22T00:04:39;100651.13;;;25.89;47.02
72548;BME280;60570;50.848;6.776;2023-06-22T00:05:40;100655.56;;;25.90;46.66
72548;BME280;60570;50.848;6.776;2023-06-22T00:06:42;100650.31;;;25.89;46.62
72548;BME280;60570;50.848;6.776;2023-06-22T00:07:43;100654.78;;;25.90;47.13
72548;BME280;60570;50.848;6.776;2023-06-22T00:08:46;100655.22;;;25.88;46.93
72548;BME280;60570;50.848;6.776;2023-06-22T00:09:49;100655.22;;;25.88;47.13
72548;BME280;60570;50.848;6.776;2023-06-22T00:10:50;100653.59;;;25.87;47.16
72548;BME280;60570;50.848;6.776;2023-06-22T00:11:52;100658.84;;;25.89;46.55
72548;BME280;60570;50.848;6.776;2023-06-22T00:12:54;100660.91;;;25.88;46.93
72548;BME280;60570;50.848;6.776;2023-06-22T00:13:55;100664.19;;;25.87;47.27
72548;BME280;60570;50.848;6.776;2023-06-22T00:14:56;100660.91;;;25.88;46.31
72548;BME280;60570;50.848;6.776;2023-06-22T00:15:57;100658.50;;;25.87;46.63
72548;BME280;60570;50.848;6.776;2023-06-22T00:16:59;100667.84;;;25.87;47.02
72548;BME280;60570;50.848;6.776;2023-06-22T00:18:00;100661.34;;;25.87;46.70
72548;BME280;60570;50.848;6.776;2023-06-22T00:19:02;100666.25;;;25.86;47.09
72548;BME280;60570;50.848;6.776;2023-06-22T00:20:07;100658.50;;;25.87;47.02
72548;BME280;60570;50.848;6.776;2023-06-22T00:21:10;100659.28;;;25.87;46.83
72548;BME280;60570;50.848;6.776;2023-06-22T00:22:12;100666.25;;;25.86;46.70
72548;BME280;60570;50.848;6.776;2023-06-22T00:23:14;100667.47;;;25.85;46.75
72548;BME280;60570;50.848;6.776;2023-06-22T00:24:16;100659.75;;;25.86;46.69
72548;BME280;60570;50.848;6.776;2023-06-22T00:25:17;100663.03;;;25.84;46.47
72548;BME280;60570;50.848;6.776;2023-06-22T00:26:18;100665.06;;;25.84;46.92
72548;BME280;60570;50.848;6.776;2023-06-22T00:27:22;100666.28;;;25.83;46.62
72548;BME280;60570;50.848;6.776;2023-06-22T00:28:23;100658.63;;;25.80;46.93
72548;BME280;60570;50.848;6.776;2023-06-22T00:29:25;100665.13;;;25.80;47.14
72548;BME280;60570;50.848;6.776;2023-06-22T00:30:26;100657.38;;;25.81;46.60
72548;BME280;60570;50.848;6.776;2023-06-22T00:31:27;100670.03;;;25.80;46.59
72548;BME280;60570;50.848;6.776;2023-06-22T00:32:29;100671.25;;;25.78;47.16
72548;BME280;60570;50.848;6.776;2023-06-22T00:33:30;100659.84;;;25.78;46.93
72548;BME280;60570;50.848;6.776;2023-06-22T00:34:32;100663.97;;;25.77;47.01
72548;BME280;60570;50.848;6.776;2023-06-22T00:35:32;100664.41;;;25.76;46.87
72548;BME280;60570;50.848;6.776;2023-06-22T00:36:34;100659.06;;;25.78;46.82
72548;BME280;60570;50.848;6.776;2023-06-22T00:37:35;100665.56;;;25.78;46.75
72548;BME280;60570;50.848;6.776;2023-06-22T00:38:37;100666.81;;;25.77;46.71
72548;BME280;60570;50.848;6.776;2023-06-22T00:39:40;100663.50;;;25.79;46.61
72548;BME280;60570;50.848;6.776;2023-06-22T00:40:42;100657.81;;;25.79;47.09
72548;BME280;60570;50.848;6.776;2023-06-22T00:41:43;100663.06;;;25.81;46.87
72548;BME280;60570;50.848;6.776;2023-06-22T00:42:46;100668.41;;;25.78;47.32
72548;BME280;60570;50.848;6.776;2023-06-22T00:43:46;100670.84;;;25.80;46.79
72548;BME280;60570;50.848;6.776;2023-06-22T00:44:48;100667.97;;;25.80;46.85
72548;BME280;60570;50.848;6.776;2023-06-22T00:45:49;100672.06;;;25.79;47.07
72548;BME280;60570;50.848;6.776;2023-06-22T00:46:51;100674.47;;;25.81;47.12
72548;BME280;60570;50.848;6.776;2023-06-22T00:47:52;100670.03;;;25.80;46.91
72548;BME280;60570;50.848;6.776;2023-06-22T00:48:54;100667.19;;;25.80;46.79
72548;BME280;60570;50.848;6.776;2023-06-22T00:49:58;100662.28;;;25.80;46.48
72548;BME280;60570;50.848;6.776;2023-06-22T00:51:00;100663.88;;;25.81;46.91
72548;BME280;60570;50.848;6.776;2023-06-22T00:52:02;100667.19;;;25.80;46.61
72548;BME280;60570;50.848;6.776;2023-06-22T00:53:05;100665.56;;;25.78;47.25
72548;BME280;60570;50.848;6.776;2023-06-22T00:54:08;100658.25;;;25.77;46.71
72548;BME280;60570;50.848;6.776;2023-06-22T00:55:09;100660.66;;;25.79;47.24
72548;BME280;60570;50.848;6.776;2023-06-22T00:56:11;100659.84;;;25.78;47.09
72548;BME280;60570;50.848;6.776;2023-06-22T00:57:13;100658.63;;;25.80;46.71
72548;BME280;60570;50.848;6.776;2023-06-22T00:58:18;100661.91;;;25.78;46.74
72548;BME280;60570;50.848;6.776;2023-06-22T00:59:22;100658.25;;;25.77;46.75
72548;BME280;60570;50.848;6.776;2023-06-22T01:00:24;100655.84;;;25.76;46.88
72548;BME280;60570;50.848;6.776;2023-06-22T01:01:26;100651.75;;;25.77;46.66
72548;BME280;60570;50.848;6.776;2023-06-22T01:02:26;100653.78;;;25.76;46.64
72548;BME280;60570;50.848;6.776;2023-06-22T01:03:30;100649.34;;;25.75;46.88
72548;BME280;60570;50.848;6.776;2023-06-22T01:04:35;100646.50;;;25.75;46.92
72548;BME280;60570;50.848;6.776;2023-06-22T01:05:37;100646.50;;;25.75;46.66
72548;BME280;60570;50.848;6.776;2023-06-22T01:06:42;100645.31;;;25.73;47.09
72548;BME280;60570;50.848;6.776;2023-06-22T01:07:56;100648.19;;;25.73;46.68
72548;BME280;60570;50.848;6.776;2023-06-22T01:09:06;100644.53;;;25.72;46.59
72548;BME280;60570;50.848;6.776;2023-06-22T01:10:16;100645.31;;;25.73;46.84
72548;BME280;60570;50.848;6.776;2023-06-22T01:11:24;100648.19;;;25.73;46.92
72548;BME280;60570;50.848;6.776;2023-06-22T01:12:30;100645.78;;;25.71;47.33
72548;BME280;60570;50.848;6.776;2023-06-22T01:13:38;100638.91;;;25.69;47.15
72548;BME280;60570;50.848;6.776;2023-06-22T01:14:48;100635.25;;;25.68;47.11
72548;BME280;60570;50.848;6.776;2023-06-22T01:15:55;100635.63;;;25.70;46.98
72548;BME280;60570;50.848;6.776;2023-06-22T01:16:59;100640.97;;;25.68;47.20
72548;BME280;60570;50.848;6.776;2023-06-22T01:18:03;100627.94;;;25.67;47.18
72548;BME280;60570;50.848;6.776;2023-06-22T01:19:29;100637.31;;;25.68;47.30
72548;BME280;60570;50.848;6.776;2023-06-22T01:20:34;100635.25;;;25.68;46.61
72548;BME280;60570;50.848;6.776;2023-06-22T01:21:37;100638.13;;;25.68;46.83
72548;BME280;60570;50.848;6.776;2023-06-22T01:22:46;100634.09;;;25.66;47.26
72548;BME280;60570;50.848;6.776;2023-06-22T01:24:06;100634.91;;;25.66;46.69
72548;BME280;60570;50.848;6.776;2023-06-22T01:25:18;100624.72;;;25.65;47.17
72548;BME280;60570;50.848;6.776;2023-06-22T01:26:25;100623.94;;;25.65;47.32
72548;BME280;60570;50.848;6.776;2023-06-22T01:27:35;100622.34;;;25.64;47.35
72548;BME280;60570;50.848;6.776;2023-06-22T01:28:43;100622.34;;;25.64;47.08
72548;BME280;60570;50.848;6.776;2023-06-22T01:29:45;100623.16;;;25.64;47.15
72548;BME280;60570;50.848;6.776;2023-06-22T01:30:49;100628.03;;;25.64;47.17
72548;BME280;60570;50.848;6.776;2023-06-22T01:31:51;100625.63;;;25.62;47.21
72548;BME280;60570;50.848;6.776;2023-06-22T01:32:53;100626.41;;;25.63;46.69
72548;BME280;60570;50.848;6.776;2023-06-22T01:34:02;100624.81;;;25.62;46.97
72548;BME280;60570;50.848;6.776;2023-06-22T01:35:05;100630.50;;;25.62;47.09
72548;BME280;60570;50.848;6.776;2023-06-22T01:36:08;100618.66;;;25.63;46.88
72548;BME280;60570;50.848;6.776;2023-06-22T01:37:10;100621.16;;;25.61;47.05
72548;BME280;60570;50.848;6.776;2023-06-22T01:38:12;100621.59;;;25.60;46.71
72548;BME280;60570;50.848;6.776;2023-06-22T01:39:14;100623.19;;;25.61;47.17
72548;BME280;60570;50.848;6.776;2023-06-22T01:40:18;100624.44;;;25.60;46.81
72548;BME280;60570;50.848;6.776;2023-06-22T01:41:20;100624.44;;;25.60;46.98
72548;BME280;60570;50.848;6.776;2023-06-22T01:42:24;100627.72;;;25.58;47.11
72548;BME280;60570;50.848;6.776;2023-06-22T01:43:26;100618.38;;;25.58;47.38
72548;BME280;60570;50.848;6.776;2023-06-22T01:44:30;100621.66;;;25.56;46.96
72548;BME280;60570;50.848;6.776;2023-06-22T01:45:31;100615.16;;;25.56;46.83
72548;BME280;60570;50.848;6.776;2023-06-22T01:46:33;100612.75;;;25.54;47.37
72548;BME280;60570;50.848;6.776;2023-06-22T01:47:34;100614.78;;;25.54;47.34
72548;BME280;60570;50.848;6.776;2023-06-22T01:48:36;100609.91;;;25.54;47.08
72548;BME280;60570;50.848;6.776;2023-06-22T01:49:38;100617.19;;;25.55;46.99
72548;BME280;60570;50.848;6.776;2023-06-22T01:50:41;100618.44;;;25.54;47.13
72548;BME280;60570;50.848;6.776;2023-06-22T01:51:42;100609.91;;;25.54;46.91
72548;BME280;60570;50.848;6.776;2023-06-22T01:52:43;100626.53;;;25.56;47.10
72548;BME280;60570;50.848;6.776;2023-06-22T01:53:44;100611.50;;;25.55;47.37
72548;BME280;60570;50.848;6.776;2023-06-22T01:54:48;100609.47;;;25.56;46.86
72548;BME280;60570;50.848;6.776;2023-06-22T01:55:49;100610.72;;;25.55;47.09
72548;BME280;60570;50.848;6.776;2023-06-22T01:56:50;100614.78;;;25.54;47.25
72548;BME280;60570;50.848;6.776;2023-06-22T01:57:51;100605.03;;;25.55;46.96
72548;BME280;60570;50.848;6.776;2023-06-22T01:58:59;100606.69;;;25.52;46.99
72548;BME280;60570;50.848;6.776;2023-06-22T02:00:04;100607.06;;;25.54;47.06
72548;BME280;60570;50.848;6.776;2023-06-22T02:01:09;100608.72;;;25.52;47.28
72548;BME280;60570;50.848;6.776;2023-06-22T02:02:12;100609.16;;;25.50;47.36
72548;BME280;60570;50.848;6.776;2023-06-22T02:03:19;100604.28;;;25.51;47.29
72548;BME280;60570;50.848;6.776;2023-06-22T02:04:24;100606.31;;;25.50;47.05
72548;BME280;60570;50.848;6.776;2023-06-22T02:05:36;100605.06;;;25.51;47.11
72548;BME280;60570;50.848;6.776;2023-06-22T02:06:42;100607.50;;;25.53;47.34
72548;BME280;60570;50.848;6.776;2023-06-22T02:07:49;100611.22;;;25.50;47.04
72548;BME280;60570;50.848;6.776;2023-06-22T02:08:56;100606.31;;;25.50;46.70
72548;BME280;60570;50.848;6.776;2023-06-22T02:10:02;100607.13;;;25.51;47.06
72548;BME280;60570;50.848;6.776;2023-06-22T02:11:03;100602.66;;;25.50;47.49
72548;BME280;60570;50.848;6.776;2023-06-22T02:12:08;100606.75;;;25.49;47.42
72548;BME280;60570;50.848;6.776;2023-06-22T02:13:11;100605.16;;;25.48;46.75
72548;BME280;60570;50.848;6.776;2023-06-22T02:14:15;100598.66;;;25.47;47.17
72548;BME280;60570;50.848;6.776;2023-06-22T02:15:18;100603.56;;;25.47;47.35
72548;BME280;60570;50.848;6.776;2023-06-22T02:16:20;100606.03;;;25.45;47.10
72548;BME280;60570;50.848;6.776;2023-06-22T02:17:21;100598.72;;;25.44;47.37
72548;BME280;60570;50.848;6.776;2023-06-22T02:18:23;100602.38;;;25.44;47.06
72548;BME280;60570;50.848;6.776;2023-06-22T02:19:24;100609.31;;;25.43;47.08
72548;BME280;60570;50.848;6.776;2023-06-22T02:20:26;100606.47;;;25.43;47.47
72548;BME280;60570;50.848;6.776;2023-06-22T02:21:27;100608.50;;;25.43;47.19
72548;BME280;60570;50.848;6.776;2023-06-22T02:22:28;100609.31;;;25.43;47.36
72548;BME280;60570;50.848;6.776;2023-06-22T02:23:29;100608.94;;;25.41;47.25
72548;BME280;60570;50.848;6.776;2023-06-22T02:24:33;100604.84;;;25.42;47.24
72548;BME280;60570;50.848;6.776;2023-06-22T02:25:35;100608.56;;;25.39;47.42
72548;BME280;60570;50.848;6.776;2023-06-22T02:26:37;100612.56;;;25.42;46.81
72548;BME280;60570;50.848;6.776;2023-06-22T02:27:40;100607.31;;;25.40;47.26
72548;BME280;60570;50.848;6.776;2023-06-22T02:28:41;100600.03;;;25.39;47.20
72548;BME280;60570;50.848;6.776;2023-06-22T02:29:42;100605.72;;;25.39;47.67
72548;BME280;60570;50.848;6.776;2023-06-22T02:30:47;100602.03;;;25.39;47.34
72548;BME280;60570;50.848;6.776;2023-06-22T02:31:51;100611.41;;;25.39;47.43
72548;BME280;60570;50.848;6.776;2023-06-22T02:32:52;100604.06;;;25.38;47.13
72548;BME280;60570;50.848;6.776;2023-06-22T02:33:59;100597.19;;;25.39;47.04
72548;BME280;60570;50.848;6.776;2023-06-22T02:35:01;100600.81;;;25.40;47.06
72548;BME280;60570;50.848;6.776;2023-06-22T02:36:05;100596.34;;;25.39;47.11
72548;BME280;60570;50.848;6.776;2023-06-22T02:37:09;100600.41;;;25.38;47.02
72548;BME280;60570;50.848;6.776;2023-06-22T02:38:11;100599.63;;;25.37;47.37
72548;BME280;60570;50.848;6.776;2023-06-22T02:39:13;100600.41;;;25.38;47.21
72548;BME280;60570;50.848;6.776;2023-06-22T02:40:13;100598.00;;;25.36;46.98
72548;BME280;60570;50.848;6.776;2023-06-22T02:41:15;100611.00;;;25.37;47.10
72548;BME280;60570;50.848;6.776;2023-06-22T02:42:18;100610.19;;;25.37;47.28
72548;BME280;60570;50.848;6.776;2023-06-22T02:43:21;100605.72;;;25.36;46.96
72548;BME280;60570;50.848;6.776;2023-06-22T02:44:22;100605.72;;;25.36;47.39
72548;BME280;60570;50.848;6.776;2023-06-22T02:45:24;100605.72;;;25.36;46.98
72548;BME280;60570;50.848;6.776;2023-06-22T02:46:26;100610.66;;;25.35;47.07
72548;BME280;60570;50.848;6.776;2023-06-22T02:47:28;100599.25;;;25.35;47.36
72548;BME280;60570;50.848;6.776;2023-06-22T02:48:30;100602.09;;;25.35;47.36
72548;BME280;60570;50.848;6.776;2023-06-22T02:49:30;100595.59;;;25.35;47.47
72548;BME280;60570;50.848;6.776;2023-06-22T02:50:32;100595.59;;;25.35;46.99
72548;BME280;60570;50.848;6.776;2023-06-22T02:51:33;100597.63;;;25.34;46.93
72548;BME280;60570;50.848;6.776;2023-06-22T02:52:36;100591.94;;;25.34;47.15
72548;BME280;60570;50.848;6.776;2023-06-22T02:53:36;100596.81;;;25.34;47.13
72548;BME280;60570;50.848;6.776;2023-06-22T02:54:38;100596.03;;;25.33;47.50
72548;BME280;60570;50.848;6.776;2023-06-22T02:55:39;100593.97;;;25.34;47.05
72548;BME280;60570;50.848;6.776;2023-06-22T02:56:41;100593.19;;;25.33;47.01
72548;BME280;60570;50.848;6.776;2023-06-22T02:57:45;100595.25;;;25.33;46.88
72548;BME280;60570;50.848;6.776;2023-06-22T02:58:48;100589.53;;;25.33;47.13
72548;BME280;60570;50.848;6.776;2023-06-22T02:59:49;100587.50;;;25.33;47.49
72548;BME280;60570;50.848;6.776;2023-06-22T03:00:50;100589.53;;;25.33;47.38
72548;BME280;60570;50.848;6.776;2023-06-22T03:01:55;100590.00;;;25.31;47.38
72548;BME280;60570;50.848;6.776;2023-06-22T03:02:57;100590.00;;;25.31;47.28
72548;BME280;60570;50.848;6.776;2023-06-22T03:03:58;100590.00;;;25.31;47.50
72548;BME280;60570;50.848;6.776;2023-06-22T03:04:59;100591.59;;;25.32;47.46
72548;BME280;60570;50.848;6.776;2023-06-22T03:06:01;100585.53;;;25.30;46.99
72548;BME280;60570;50.848;6.776;2023-06-22T03:07:02;100588.38;;;25.30;46.97
72548;BME280;60570;50.848;6.776;2023-06-22T03:08:04;100589.19;;;25.31;47.41
72548;BME280;60570;50.848;6.776;2023-06-22T03:09:05;100588.38;;;25.30;47.31
72548;BME280;60570;50.848;6.776;2023-06-22T03:10:07;100594.06;;;25.30;47.08
72548;BME280;60570;50.848;6.776;2023-06-22T03:11:09;100581.91;;;25.30;47.41
72548;BME280;60570;50.848;6.776;2023-06-22T03:12:11;100590.44;;;25.30;47.54
72548;BME280;60570;50.848;6.776;2023-06-22T03:13:12;100588.38;;;25.30;46.94
72548;BME280;60570;50.848;6.776;2023-06-22T03:14:13;100578.69;;;25.28;47.52
72548;BME280;60570;50.848;6.776;2023-06-22T03:15:15;100578.25;;;25.29;47.13
72548;BME280;60570;50.848;6.776;2023-06-22T03:16:17;100575.41;;;25.29;47.53
72548;BME280;60570;50.848;6.776;2023-06-22T03:17:19;100577.44;;;25.29;47.03
72548;BME280;60570;50.848;6.776;2023-06-22T03:18:21;100573.78;;;25.28;47.28
72548;BME280;60570;50.848;6.776;2023-06-22T03:19:22;100571.38;;;25.27;47.41
72548;BME280;60570;50.848;6.776;2023-06-22T03:20:24;100569.34;;;25.27;47.52
72548;BME280;60570;50.848;6.776;2023-06-22T03:21:28;100572.19;;;25.27;47.22
72548;BME280;60570;50.848;6.776;2023-06-22T03:22:29;100572.19;;;25.27;47.25
72548;BME280;60570;50.848;6.776;2023-06-22T03:23:30;100571.38;;;25.27;47.39
72548;BME280;60570;50.848;6.776;2023-06-22T03:24:32;100579.09;;;25.26;47.55
72548;BME280;60570;50.848;6.776;2023-06-22T03:25:35;100573.41;;;25.26;47.28
72548;BME280;60570;50.848;6.776;2023-06-22T03:26:36;100571.81;;;25.25;47.52
72548;BME280;60570;50.848;6.776;2023-06-22T03:27:37;100564.50;;;25.24;47.01
72548;BME280;60570;50.848;6.776;2023-06-22T03:28:39;100565.31;;;25.25;47.11
72548;BME280;60570;50.848;6.776;2023-06-22T03:29:39;100558.81;;;25.24;47.37
72548;BME280;60570;50.848;6.776;2023-06-22T03:30:41;100560.88;;;25.24;47.64
72548;BME280;60570;50.848;6.776;2023-06-22T03:31:42;100554.38;;;25.23;47.54
72548;BME280;60570;50.848;6.776;2023-06-22T03:32:45;100547.88;;;25.23;47.54
72548;BME280;60570;50.848;6.776;2023-06-22T03:33:47;100543.44;;;25.22;47.31
72548;BME280;60570;50.848;6.776;2023-06-22T03:34:49;100542.63;;;25.21;47.32
72548;BME280;60570;50.848;6.776;2023-06-22T03:35:50;100544.22;;;25.22;47.33
72548;BME280;60570;50.848;6.776;2023-06-22T03:36:51;100540.59;;;25.22;47.52
72548;BME280;60570;50.848;6.776;2023-06-22T03:37:53;100538.16;;;25.20;47.60
72548;BME280;60570;50.848;6.776;2023-06-22T03:38:55;100531.69;;;25.20;47.13
72548;BME280;60570;50.848;6.776;2023-06-22T03:39:57;100538.97;;;25.21;47.60
72548;BME280;60570;50.848;6.776;2023-06-22T03:40:58;100528.03;;;25.19;47.26
72548;BME280;60570;50.848;6.776;2023-06-22T03:41:59;100534.94;;;25.18;47.10
72548;BME280;60570;50.848;6.776;2023-06-22T03:43:00;100530.50;;;25.17;47.69
72548;BME280;60570;50.848;6.776;2023-06-22T03:44:02;100526.84;;;25.17;47.36
72548;BME280;60570;50.848;6.776;2023-06-22T03:45:03;100529.69;;;25.17;47.64
72548;BME280;60570;50.848;6.776;2023-06-22T03:46:06;100525.25;;;25.16;47.67
72548;BME280;60570;50.848;6.776;2023-06-22T03:47:07;100526.06;;;25.16;47.45
72548;BME280;60570;50.848;6.776;2023-06-22T03:48:11;100530.13;;;25.15;47.68
72548;BME280;60570;50.848;6.776;2023-06-22T03:49:11;100530.94;;;25.16;47.72
72548;BME280;60570;50.848;6.776;2023-06-22T03:50:13;100534.22;;;25.14;47.45
72548;BME280;60570;50.848;6.776;2023-06-22T03:51:15;100530.56;;;25.14;47.58
72548;BME280;60570;50.848;6.776;2023-06-22T03:52:16;100541.50;;;25.15;47.72
72548;BME280;60570;50.848;6.776;2023-06-22T03:53:17;100547.19;;;25.15;47.39
72548;BME280;60570;50.848;6.776;2023-06-22T03:54:19;100548.44;;;25.14;47.31
72548;BME280;60570;50.848;6.776;2023-06-22T03:55:20;100544.00;;;25.13;47.89
72548;BME280;60570;50.848;6.776;2023-06-22T03:56:21;100537.50;;;25.13;47.22
72548;BME280;60570;50.848;6.776;2023-06-22T03:57:22;100549.66;;;25.13;47.52
72548;BME280;60570;50.848;6.776;2023-06-22T03:58:27;100535.91;;;25.12;47.42
72548;BME280;60570;50.848;6.776;2023-06-22T03:59:29;100540.34;;;25.13;47.37
72548;BME280;60570;50.848;6.776;2023-06-22T04:00:31;100538.75;;;25.12;47.48
72548;BME280;60570;50.848;6.776;2023-06-22T04:01:31;100540.34;;;25.13;47.30
72548;BME280;60570;50.848;6.776;2023-06-22T04:02:33;100533.88;;;25.12;47.50
72548;BME280;60570;50.848;6.776;2023-06-22T04:03:36;100532.25;;;25.11;47.71
72548;BME280;60570;50.848;6.776;2023-06-22T04:04:38;100531.44;;;25.11;47.80
72548;BME280;60570;50.848;6.776;2023-06-22T04:05:39;100529.84;;;25.10;47.57
72548;BME280;60570;50.848;6.776;2023-06-22T04:06:41;100525.38;;;25.09;47.59
72548;BME280;60570;50.848;6.776;2023-06-22T04:07:42;100529.03;;;25.09;47.83
72548;BME280;60570;50.848;6.776;2023-06-22T04:08:45;100529.03;;;25.09;47.73
72548;BME280;60570;50.848;6.776;2023-06-22T04:09:48;100529.84;;;25.10;47.20
72548;BME280;60570;50.848;6.776;2023-06-22T04:10:50;100521.31;;;25.10;47.59
72548;BME280;60570;50.848;6.776;2023-06-22T04:11:52;100517.28;;;25.07;47.36
72548;BME280;60570;50.848;6.776;2023-06-22T04:12:52;100520.13;;;25.07;48.01
72548;BME280;60570;50.848;6.776;2023-06-22T04:13:54;100510.78;;;25.07;47.74
72548;BME280;60570;50.848;6.776;2023-06-22T04:14:55;100516.47;;;25.07;47.50
72548;BME280;60570;50.848;6.776;2023-06-22T04:15:57;100523.78;;;25.08;47.60
72548;BME280;60570;50.848;6.776;2023-06-22T04:16:58;100524.22;;;25.06;47.41
72548;BME280;60570;50.848;6.776;2023-06-22T04:18:00;100528.66;;;25.07;47.73
72548;BME280;60570;50.848;6.776;2023-06-22T04:19:02;100529.09;;;25.06;47.87
72548;BME280;60570;50.848;6.776;2023-06-22T04:20:05;100525.44;;;25.05;47.96
72548;BME280;60570;50.848;6.776;2023-06-22T04:21:06;100528.72;;;25.04;47.59
72548;BME280;60570;50.848;6.776;2023-06-22T04:22:07;100529.53;;;25.04;47.56
72548;BME280;60570;50.848;6.776;2023-06-22T04:23:08;100536.44;;;25.03;47.76
72548;BME280;60570;50.848;6.776;2023-06-22T04:24:10;100537.25;;;25.04;47.55
72548;BME280;60570;50.848;6.776;2023-06-22T04:25:11;100546.22;;;25.02;47.90
72548;BME280;60570;50.848;6.776;2023-06-22T04:26:13;100555.56;;;25.03;47.97
72548;BME280;60570;50.848;6.776;2023-06-22T04:27:16;100563.28;;;25.02;47.61
72548;BME280;60570;50.848;6.776;2023-06-22T04:28:19;100564.50;;;25.01;47.63
72548;BME280;60570;50.848;6.776;2023-06-22T04:29:19;100565.75;;;25.00;47.64
72548;BME280;60570;50.848;6.776;2023-06-22T04:30:21;100570.19;;;25.01;47.58
72548;BME280;60570;50.848;6.776;2023-06-22T04:31:22;100570.19;;;25.01;48.02
72548;BME280;60570;50.848;6.776;2023-06-22T04:32:32;100581.56;;;25.01;47.64
72548;BME280;60570;50.848;6.776;2023-06-22T04:33:32;100576.69;;;25.02;47.88
72548;BME280;60570;50.848;6.776;2023-06-22T04:34:36;100571.44;;;25.00;47.57
72548;BME280;60570;50.848;6.776;2023-06-22T04:35:37;100579.97;;;25.00;47.50
72548;BME280;60570;50.848;6.776;2023-06-22T04:36:41;100569.81;;;24.99;47.60
72548;BME280;60570;50.848;6.776;2023-06-22T04:37:42;100569.81;;;24.99;48.11
72548;BME280;60570;50.848;6.776;2023-06-22T04:38:44;100571.44;;;25.00;48.12
72548;BME280;60570;50.848;6.776;2023-06-22T04:39:45;100569.81;;;24.99;47.76
72548;BME280;60570;50.848;6.776;2023-06-22T04:40:46;100570.63;;;25.00;48.13
72548;BME280;60570;50.848;6.776;2023-06-22T04:41:47;100569.81;;;24.99;47.59
72548;BME280;60570;50.848;6.776;2023-06-22T04:42:50;100567.78;;;25.00;47.55
72548;BME280;60570;50.848;6.776;2023-06-22T04:43:53;100568.22;;;24.98;47.80
72548;BME280;60570;50.848;6.776;2023-06-22T04:45:00;100562.91;;;25.00;47.79
72548;BME280;60570;50.848;6.776;2023-06-22T04:46:02;100578.78;;;24.98;48.11
72548;BME280;60570;50.848;6.776;2023-06-22T04:47:04;100579.59;;;24.98;48.04
72548;BME280;60570;50.848;6.776;2023-06-22T04:48:08;100575.13;;;24.97;47.64
72548;BME280;60570;50.848;6.776;2023-06-22T04:49:10;100572.28;;;24.97;47.73
72548;BME280;60570;50.848;6.776;2023-06-22T04:50:13;100575.13;;;24.97;47.91
72548;BME280;60570;50.848;6.776;2023-06-22T04:51:15;100571.50;;;24.97;47.84
72548;BME280;60570;50.848;6.776;2023-06-22T04:52:19;100562.97;;;24.97;48.13
72548;BME280;60570;50.848;6.776;2023-06-22T04:53:20;100568.66;;;24.97;48.15
72548;BME280;60570;50.848;6.776;2023-06-22T04:54:22;100560.53;;;24.95;48.02
72548;BME280;60570;50.848;6.776;2023-06-22T04:55:23;100555.66;;;24.96;48.17
72548;BME280;60570;50.848;6.776;2023-06-22T04:56:28;100549.16;;;24.95;47.94
72548;BME280;60570;50.848;6.776;2023-06-22T04:57:29;100555.66;;;24.96;47.59
72548;BME280;60570;50.848;6.776;2023-06-22T04:58:32;100549.16;;;24.95;47.52
72548;BME280;60570;50.848;6.776;2023-06-22T04:59:33;100542.72;;;24.95;47.94
72548;BME280;60570;50.848;6.776;2023-06-22T05:00:35;100540.63;;;24.95;48.16
72548;BME280;60570;50.848;6.776;2023-06-22T05:01:36;100544.75;;;24.94;48.00
72548;BME280;60570;50.848;6.776;2023-06-22T05:02:38;100538.25;;;24.94;47.70
72548;BME280;60570;50.848;6.776;2023-06-22T05:03:39;100531.75;;;24.93;47.64
72548;BME280;60570;50.848;6.776;2023-06-22T05:04:42;100548.03;;;24.93;48.29
72548;BME280;60570;50.848;6.776;2023-06-22T05:05:44;100538.69;;;24.92;48.05
72548;BME280;60570;50.848;6.776;2023-06-22T05:06:46;100532.19;;;24.92;48.24
72548;BME280;60570;50.848;6.776;2023-06-22T05:07:46;100539.91;;;24.91;48.36
72548;BME280;60570;50.848;6.776;2023-06-22T05:08:52;100539.91;;;24.91;48.19
72548;BME280;60570;50.848;6.776;2023-06-22T05:09:52;100532.63;;;24.90;47.75
72548;BME280;60570;50.848;6.776;2023-06-22T05:10:54;100544.00;;;24.90;47.99
72548;BME280;60570;50.848;6.776;2023-06-22T05:11:55;100543.19;;;24.89;47.78
72548;BME280;60570;50.848;6.776;2023-06-22T05:12:57;100539.53;;;24.89;48.23
72548;BME280;60570;50.848;6.776;2023-06-22T05:13:58;100544.81;;;24.91;48.03
72548;BME280;60570;50.848;6.776;2023-06-22T05:14:59;100542.38;;;24.89;48.08
72548;BME280;60570;50.848;6.776;2023-06-22T05:16:01;100547.28;;;24.88;48.22
72548;BME280;60570;50.848;6.776;2023-06-22T05:17:04;100546.03;;;24.89;48.20
72548;BME280;60570;50.848;6.776;2023-06-22T05:18:04;100543.63;;;24.88;48.30
72548;BME280;60570;50.848;6.776;2023-06-22T05:19:06;100552.97;;;24.88;48.14
72548;BME280;60570;50.848;6.776;2023-06-22T05:20:08;100548.06;;;24.89;48.18
72548;BME280;60570;50.848;6.776;2023-06-22T05:21:11;100553.75;;;24.89;48.37
72548;BME280;60570;50.848;6.776;2023-06-22T05:22:12;100555.81;;;24.88;47.97
72548;BME280;60570;50.848;6.776;2023-06-22T05:23:14;100550.13;;;24.88;48.27
72548;BME280;60570;50.848;6.776;2023-06-22T05:24:15;100552.97;;;24.88;48.00
72548;BME280;60570;50.848;6.776;2023-06-22T05:25:16;100550.56;;;24.87;47.88
72548;BME280;60570;50.848;6.776;2023-06-22T05:26:17;100547.28;;;24.88;48.37
72548;BME280;60570;50.848;6.776;2023-06-22T05:27:19;100550.13;;;24.88;48.09